LEALLFKC

Guest
Details From LEAL - Alicante
To LFKC - St Catherine
Flight Number -
Tags Generated
Created
Modified
Stats Distance 499 nm / 923 km
Max Altitude 0 ft / 0 m
Waypoints 4
Social Downloads 4
Likes 0
Share VATSIM

Download

Looking for another format? Having issues loading an existing format? Contact us
Advertisement - Login to hide

Notes

Generated

Route

LEAL SARGO OMEDA LFKC

ID Type Via Altitude Latitude Longitude Leg Dist Tot Dist Heading (true) Name
O LEAL APT - 0 ft / 0 m 38.28452˚ -0.57500˚ - 0 nm - -
SARGO FIX - 0 ft / 0 m 40.50000˚ 3.99231˚ 250 nm 250 nm 56° / 59° -
OMEDA FIX - 0 ft / 0 m 42.32889˚ 8.36194˚ 225 nm 475 nm 59° / 62° -
O LFKC APT - 0 ft / 0 m 42.54117˚ 8.79283˚ 22 nm 498 nm 56° / 56° -

Altitude Profile

Advertisement - Login to hide

Weather


0- 5 10 15 20 25 30 35+ Temperature / ° C

Clouds and Precipitation
Forecast for 2018-05-27 18:00 UTC. Updated an hour ago

Ground ~20,000 ft ~40,000 ft Winds

LEAL

Details ICAO LEAL (ALC)
Name Alicante
Region Spain
Timezone Europe/Madrid (UTC+2.0)
Stats Elevation 141 ft / 43 m (AMSL)
Location 38.282169° -0.558157°
Runways 1
Magnetic Variation 0.233° E

METAR

LEAL 271830Z 10005KT 080V140 9999 FEW035 22/18 Q1012 NOSIG

Decode

TAF

TAF LEAL 271700Z 2718/2818 18008KT 9999 FEW030 TX25/2812Z TN17/2806Z BECMG 2718/2720 29007KT BECMG 2808/2811 09015KT

Decode

Departure Runways

ID Width Length Bearing (true) Bearing (mag) Surface Threshold Offset Overrun Length
10 148 ft / 45 m 9,799 ft / 2,987 m 100.07° 99.84° Asphalt 0 ft / 0 m 164 ft / 50 m
28 148 ft / 45 m 9,799 ft / 2,987 m 280.09° 279.86° Asphalt 0 ft / 0 m 197 ft / 60 m

LFKC

Details ICAO LFKC (CLY)
Name St Catherine
Region France
Timezone Europe/Paris (UTC+2.0)
Stats Elevation 208 ft / 63 m (AMSL)
Location 42.530762° 8.792925°
Runways 1
Magnetic Variation 2.391° E

METAR

LFKC 271830Z AUTO 21005G16KT 140V260 CAVOK 25/15 Q1012 NOSIG

Decode

TAF

TAF LFKC 271400Z 2715/2815 36004KT CAVOK BECMG 2719/2721 18004KT BECMG 2808/2810 02008KT SCT030 BKN050 TEMPO 2809/2815 RA TX25/2812Z TN17/2803Z

Decode

Destination Runways

ID Width Length Bearing (true) Bearing (mag) Surface Threshold Offset Overrun Length
18 131 ft / 40 m 7,596 ft / 2,315 m 179.60° 177.21° Concrete 0 ft / 0 m 0 ft / 0 m
36 131 ft / 40 m 7,596 ft / 2,315 m 359.60° 357.21° Concrete 656 ft / 200 m 0 ft / 0 m

Approach Navaids

Runway Type Ident Frequency Range Bearing (true) Bearing (mag) Slope Elevation
18 Localiser CLI 109.50 MHz 18 nm / 33 km 179.62° 177.23° - 230 ft / 70 m (AMSL)
18 DME CLI 109.50 MHz 18 nm / 33 km - - - 230 ft / 70 m (AMSL)